sensor_id;sensor_type;location;lat;lon;timestamp;temperature;humidity
70246;SHT30;57637;49.272;8.590;2024-02-23T00:00:03;8.60;75.43
70246;SHT30;57637;49.272;8.590;2024-02-23T00:02:30;8.59;75.37
70246;SHT30;57637;49.272;8.590;2024-02-23T00:04:58;8.56;76.14
70246;SHT30;57637;49.272;8.590;2024-02-23T00:07:24;8.52;77.09
70246;SHT30;57637;49.272;8.590;2024-02-23T00:09:49;8.50;77.49
70246;SHT30;57637;49.272;8.590;2024-02-23T00:12:15;8.44;77.95
70246;SHT30;57637;49.272;8.590;2024-02-23T00:14:40;8.36;78.44
70246;SHT30;57637;49.272;8.590;2024-02-23T00:17:05;8.29;78.87
70246;SHT30;57637;49.272;8.590;2024-02-23T00:19:31;8.24;78.83
70246;SHT30;57637;49.272;8.590;2024-02-23T00:21:57;8.21;79.06
70246;SHT30;57637;49.272;8.590;2024-02-23T00:24:24;8.18;79.15
70246;SHT30;57637;49.272;8.590;2024-02-23T00:26:50;8.15;79.17
70246;SHT30;57637;49.272;8.590;2024-02-23T00:29:16;8.14;79.22
70246;SHT30;57637;49.272;8.590;2024-02-23T00:31:42;8.08;78.72
70246;SHT30;57637;49.272;8.590;2024-02-23T00:34:07;8.06;78.39
70246;SHT30;57637;49.272;8.590;2024-02-23T00:36:41;8.05;78.55
70246;SHT30;57637;49.272;8.590;2024-02-23T00:39:07;8.02;79.01
70246;SHT30;57637;49.272;8.590;2024-02-23T00:41:33;7.94;78.12
70246;SHT30;57637;49.272;8.590;2024-02-23T00:44:04;7.90;77.45
70246;SHT30;57637;49.272;8.590;2024-02-23T00:46:29;7.90;77.20
70246;SHT30;57637;49.272;8.590;2024-02-23T00:48:55;7.88;77.17
70246;SHT30;57637;49.272;8.590;2024-02-23T00:51:20;7.81;77.09
70246;SHT30;57637;49.272;8.590;2024-02-23T00:53:45;7.81;77.17
70246;SHT30;57637;49.272;8.590;2024-02-23T00:56:11;7.77;77.14
70246;SHT30;57637;49.272;8.590;2024-02-23T00:58:37;7.70;77.52
70246;SHT30;57637;49.272;8.590;2024-02-23T01:01:02;7.67;77.03
70246;SHT30;57637;49.272;8.590;2024-02-23T01:03:28;7.62;76.83
70246;SHT30;57637;49.272;8.590;2024-02-23T01:05:53;7.59;77.14
70246;SHT30;57637;49.272;8.590;2024-02-23T01:08:19;7.50;77.23
70246;SHT30;57637;49.272;8.590;2024-02-23T01:10:44;7.46;77.84
70246;SHT30;57637;49.272;8.590;2024-02-23T01:13:10;7.40;78.16
70246;SHT30;57637;49.272;8.590;2024-02-23T01:15:35;7.33;78.61
70246;SHT30;57637;49.272;8.590;2024-02-23T01:18:00;7.30;78.99
70246;SHT30;57637;49.272;8.590;2024-02-23T01:20:26;7.26;79.10
70246;SHT30;57637;49.272;8.590;2024-02-23T01:22:51;7.22;79.17
70246;SHT30;57637;49.272;8.590;2024-02-23T01:25:16;7.18;79.40
70246;SHT30;57637;49.272;8.590;2024-02-23T01:27:42;7.12;79.61
70246;SHT30;57637;49.272;8.590;2024-02-23T01:30:09;7.09;79.53
70246;SHT30;57637;49.272;8.590;2024-02-23T01:32:35;7.09;79.80
70246;SHT30;57637;49.272;8.590;2024-02-23T01:35:02;7.02;79.85
70246;SHT30;57637;49.272;8.590;2024-02-23T01:37:28;7.02;80.11
70246;SHT30;57637;49.272;8.590;2024-02-23T01:39:53;7.01;80.20
70246;SHT30;57637;49.272;8.590;2024-02-23T01:42:18;6.98;80.02
70246;SHT30;57637;49.272;8.590;2024-02-23T01:44:44;7.05;79.59
70246;SHT30;57637;49.272;8.590;2024-02-23T01:47:10;7.03;79.62
70246;SHT30;57637;49.272;8.590;2024-02-23T01:49:36;6.99;79.58
70246;SHT30;57637;49.272;8.590;2024-02-23T01:52:01;6.96;79.46
70246;SHT30;57637;49.272;8.590;2024-02-23T01:54:28;6.96;79.48
70246;SHT30;57637;49.272;8.590;2024-02-23T01:56:55;6.99;79.03
70246;SHT30;57637;49.272;8.590;2024-02-23T01:59:21;6.98;78.83
70246;SHT30;57637;49.272;8.590;2024-02-23T02:01:48;6.99;78.66
70246;SHT30;57637;49.272;8.590;2024-02-23T02:04:13;7.01;78.37
70246;SHT30;57637;49.272;8.590;2024-02-23T02:06:39;6.99;78.36
70246;SHT30;57637;49.272;8.590;2024-02-23T02:09:04;6.96;78.46
70246;SHT30;57637;49.272;8.590;2024-02-23T02:11:30;6.96;78.19
70246;SHT30;57637;49.272;8.590;2024-02-23T02:13:56;6.98;78.32
70246;SHT30;57637;49.272;8.590;2024-02-23T02:16:21;6.95;78.40
70246;SHT30;57637;49.272;8.590;2024-02-23T02:18:46;6.95;78.66
70246;SHT30;57637;49.272;8.590;2024-02-23T02:21:12;6.93;78.63
70246;SHT30;57637;49.272;8.590;2024-02-23T02:23:37;6.99;78.42
70246;SHT30;57637;49.272;8.590;2024-02-23T02:26:03;7.03;78.50
70246;SHT30;57637;49.272;8.590;2024-02-23T02:28:29;7.05;78.56
70246;SHT30;57637;49.272;8.590;2024-02-23T02:30:54;7.12;78.34
70246;SHT30;57637;49.272;8.590;2024-02-23T02:33:20;7.16;78.11
70246;SHT30;57637;49.272;8.590;2024-02-23T02:35:46;7.20;78.19
70246;SHT30;57637;49.272;8.590;2024-02-23T02:38:11;7.26;77.78
70246;SHT30;57637;49.272;8.590;2024-02-23T02:40:37;7.24;77.67
70246;SHT30;57637;49.272;8.590;2024-02-23T02:43:03;7.26;77.82
70246;SHT30;57637;49.272;8.590;2024-02-23T02:45:29;7.24;78.06
70246;SHT30;57637;49.272;8.590;2024-02-23T02:47:54;7.24;78.19
70246;SHT30;57637;49.272;8.590;2024-02-23T02:50:21;7.30;78.29
70246;SHT30;57637;49.272;8.590;2024-02-23T02:52:46;7.27;78.37
70246;SHT30;57637;49.272;8.590;2024-02-23T02:55:12;7.29;78.38
70246;SHT30;57637;49.272;8.590;2024-02-23T02:57:37;7.30;78.41
70246;SHT30;57637;49.272;8.590;2024-02-23T03:00:03;7.27;78.47
70246;SHT30;57637;49.272;8.590;2024-02-23T03:02:33;7.30;78.40
70246;SHT30;57637;49.272;8.590;2024-02-23T03:05:00;7.30;78.27
70246;SHT30;57637;49.272;8.590;2024-02-23T03:07:25;7.29;77.82
70246;SHT30;57637;49.272;8.590;2024-02-23T03:09:50;7.32;77.75
70246;SHT30;57637;49.272;8.590;2024-02-23T03:12:16;7.30;77.80
70246;SHT30;57637;49.272;8.590;2024-02-23T03:14:42;7.29;77.15
70246;SHT30;57637;49.272;8.590;2024-02-23T03:17:08;7.29;76.69
70246;SHT30;57637;49.272;8.590;2024-02-23T03:19:34;7.30;76.13
70246;SHT30;57637;49.272;8.590;2024-02-23T03:22:00;7.33;76.26
70246;SHT30;57637;49.272;8.590;2024-02-23T03:24:25;7.30;75.83
70246;SHT30;57637;49.272;8.590;2024-02-23T03:26:50;7.26;75.16
70246;SHT30;57637;49.272;8.590;2024-02-23T03:29:15;7.30;75.25
70246;SHT30;57637;49.272;8.590;2024-02-23T03:31:41;7.30;75.12
70246;SHT30;57637;49.272;8.590;2024-02-23T03:34:06;7.27;75.03
70246;SHT30;57637;49.272;8.590;2024-02-23T03:36:32;7.29;74.88
70246;SHT30;57637;49.272;8.590;2024-02-23T03:38:58;7.29;75.03
70246;SHT30;57637;49.272;8.590;2024-02-23T03:41:24;7.26;75.05
70246;SHT30;57637;49.272;8.590;2024-02-23T03:43:49;7.26;75.22
70246;SHT30;57637;49.272;8.590;2024-02-23T03:46:14;7.26;75.30
70246;SHT30;57637;49.272;8.590;2024-02-23T03:48:41;7.23;75.45
70246;SHT30;57637;49.272;8.590;2024-02-23T03:51:08;7.26;75.79
70246;SHT30;57637;49.272;8.590;2024-02-23T03:53:33;7.24;75.90
70246;SHT30;57637;49.272;8.590;2024-02-23T03:55:59;7.20;75.89
70246;SHT30;57637;49.272;8.590;2024-02-23T03:58:24;7.22;75.75
70246;SHT30;57637;49.272;8.590;2024-02-23T04:00:49;7.23;75.83
70246;SHT30;57637;49.272;8.590;2024-02-23T04:03:15;7.19;75.62
70246;SHT30;57637;49.272;8.590;2024-02-23T04:05:40;7.20;75.52
70246;SHT30;57637;49.272;8.590;2024-02-23T04:08:05;7.18;75.60
70246;SHT30;57637;49.272;8.590;2024-02-23T04:10:31;7.19;75.85
70246;SHT30;57637;49.272;8.590;2024-02-23T04:12:57;7.16;75.73
70246;SHT30;57637;49.272;8.590;2024-02-23T04:15:23;7.12;75.60
70246;SHT30;57637;49.272;8.590;2024-02-23T04:17:48;7.10;75.79
70246;SHT30;57637;49.272;8.590;2024-02-23T04:20:14;7.10;75.80
70246;SHT30;57637;49.272;8.590;2024-02-23T04:22:39;7.08;75.87
70246;SHT30;57637;49.272;8.590;2024-02-23T04:25:04;7.03;75.78
70246;SHT30;57637;49.272;8.590;2024-02-23T04:27:30;7.01;75.68
70246;SHT30;57637;49.272;8.590;2024-02-23T04:29:55;7.01;75.56
70246;SHT30;57637;49.272;8.590;2024-02-23T04:32:21;6.99;75.77
70246;SHT30;57637;49.272;8.590;2024-02-23T04:34:46;6.99;76.09
70246;SHT30;57637;49.272;8.590;2024-02-23T04:37:12;6.95;75.86
70246;SHT30;57637;49.272;8.590;2024-02-23T04:39:37;6.95;75.84
70246;SHT30;57637;49.272;8.590;2024-02-23T04:42:03;6.92;76.12
70246;SHT30;57637;49.272;8.590;2024-02-23T04:44:29;6.89;75.93
70246;SHT30;57637;49.272;8.590;2024-02-23T04:46:54;6.91;76.15
70246;SHT30;57637;49.272;8.590;2024-02-23T04:49:20;6.87;76.18
70246;SHT30;57637;49.272;8.590;2024-02-23T04:51:45;6.82;76.29
70246;SHT30;57637;49.272;8.590;2024-02-23T04:54:11;6.78;76.20
70246;SHT30;57637;49.272;8.590;2024-02-23T04:56:36;6.72;76.32
70246;SHT30;57637;49.272;8.590;2024-02-23T04:59:01;6.65;76.48
70246;SHT30;57637;49.272;8.590;2024-02-23T05:01:27;6.59;76.46
70246;SHT30;57637;49.272;8.590;2024-02-23T05:03:52;6.54;76.57
70246;SHT30;57637;49.272;8.590;2024-02-23T05:06:17;6.50;76.61
70246;SHT30;57637;49.272;8.590;2024-02-23T05:08:43;6.50;76.79
70246;SHT30;57637;49.272;8.590;2024-02-23T05:11:08;6.58;77.42
70246;SHT30;57637;49.272;8.590;2024-02-23T05:13:33;6.58;77.47
70246;SHT30;57637;49.272;8.590;2024-02-23T05:15:59;6.65;76.56
70246;SHT30;57637;49.272;8.590;2024-02-23T05:18:24;6.67;76.62
70246;SHT30;57637;49.272;8.590;2024-02-23T05:20:49;6.68;76.55
70246;SHT30;57637;49.272;8.590;2024-02-23T05:23:15;6.68;76.05
70246;SHT30;57637;49.272;8.590;2024-02-23T05:25:41;6.77;76.46
70246;SHT30;57637;49.272;8.590;2024-02-23T05:28:07;6.74;76.08
70246;SHT30;57637;49.272;8.590;2024-02-23T05:30:32;6.71;76.08
70246;SHT30;57637;49.272;8.590;2024-02-23T05:32:58;6.75;76.57
70246;SHT30;57637;49.272;8.590;2024-02-23T05:35:23;6.72;75.72
70246;SHT30;57637;49.272;8.590;2024-02-23T05:37:52;6.71;75.28
70246;SHT30;57637;49.272;8.590;2024-02-23T05:40:17;6.74;75.51
70246;SHT30;57637;49.272;8.590;2024-02-23T05:42:43;6.72;75.11
70246;SHT30;57637;49.272;8.590;2024-02-23T05:45:08;6.75;75.26
70246;SHT30;57637;49.272;8.590;2024-02-23T05:47:36;6.69;74.34
70246;SHT30;57637;49.272;8.590;2024-02-23T05:50:03;6.71;74.01
70246;SHT30;57637;49.272;8.590;2024-02-23T05:52:30;7.05;77.62
70246;SHT30;57637;49.272;8.590;2024-02-23T05:54:56;7.37;76.62
70246;SHT30;57637;49.272;8.590;2024-02-23T05:57:22;7.59;75.63
70246;SHT30;57637;49.272;8.590;2024-02-23T05:59:47;7.59;74.54
70246;SHT30;57637;49.272;8.590;2024-02-23T06:02:13;7.66;73.11
70246;SHT30;57637;49.272;8.590;2024-02-23T06:04:39;7.27;71.50
70246;SHT30;57637;49.272;8.590;2024-02-23T06:07:05;6.95;72.46
70246;SHT30;57637;49.272;8.590;2024-02-23T06:09:30;6.74;72.97
70246;SHT30;57637;49.272;8.590;2024-02-23T06:11:56;6.52;73.21
70246;SHT30;57637;49.272;8.590;2024-02-23T06:14:21;6.40;73.55
70246;SHT30;57637;49.272;8.590;2024-02-23T06:16:48;6.27;73.85
70246;SHT30;57637;49.272;8.590;2024-02-23T06:19:14;6.17;74.05
70246;SHT30;57637;49.272;8.590;2024-02-23T06:21:39;6.09;74.53
70246;SHT30;57637;49.272;8.590;2024-02-23T06:24:04;6.03;74.31
70246;SHT30;57637;49.272;8.590;2024-02-23T06:26:30;5.95;74.57
70246;SHT30;57637;49.272;8.590;2024-02-23T06:28:55;5.92;74.81
70246;SHT30;57637;49.272;8.590;2024-02-23T06:31:20;5.85;74.47
70246;SHT30;57637;49.272;8.590;2024-02-23T06:33:46;5.83;74.59
70246;SHT30;57637;49.272;8.590;2024-02-23T06:36:14;5.80;74.59
70246;SHT30;57637;49.272;8.590;2024-02-23T06:38:39;5.77;74.73
70246;SHT30;57637;49.272;8.590;2024-02-23T06:41:04;5.76;74.69
70246;SHT30;57637;49.272;8.590;2024-02-23T06:43:30;5.75;74.16
70246;SHT30;57637;49.272;8.590;2024-02-23T06:45:56;5.75;74.11
70246;SHT30;57637;49.272;8.590;2024-02-23T06:48:21;5.70;74.35
70246;SHT30;57637;49.272;8.590;2024-02-23T06:50:46;5.65;74.42
70246;SHT30;57637;49.272;8.590;2024-02-23T06:53:12;5.65;74.16
70246;SHT30;57637;49.272;8.590;2024-02-23T06:55:37;5.63;74.33
70246;SHT30;57637;49.272;8.590;2024-02-23T06:58:02;5.63;74.19
70246;SHT30;57637;49.272;8.590;2024-02-23T07:00:30;5.62;74.23
70246;SHT30;57637;49.272;8.590;2024-02-23T07:02:55;5.59;74.62
70246;SHT30;57637;49.272;8.590;2024-02-23T07:05:23;5.56;74.70
70246;SHT30;57637;49.272;8.590;2024-02-23T07:07:49;5.55;74.50
70246;SHT30;57637;49.272;8.590;2024-02-23T07:10:14;5.56;74.60
70246;SHT30;57637;49.272;8.590;2024-02-23T07:12:40;5.52;74.60
70246;SHT30;57637;49.272;8.590;2024-02-23T07:15:05;5.51;74.73
70246;SHT30;57637;49.272;8.590;2024-02-23T07:17:31;5.52;74.77
70246;SHT30;57637;49.272;8.590;2024-02-23T07:19:56;5.58;75.19
70246;SHT30;57637;49.272;8.590;2024-02-23T07:22:30;5.60;75.30
70246;SHT30;57637;49.272;8.590;2024-02-23T07:24:57;5.63;75.13
70246;SHT30;57637;49.272;8.590;2024-02-23T07:27:22;5.66;74.78
70246;SHT30;57637;49.272;8.590;2024-02-23T07:29:47;5.72;74.45
70246;SHT30;57637;49.272;8.590;2024-02-23T07:32:13;5.79;74.33
70246;SHT30;57637;49.272;8.590;2024-02-23T07:34:38;5.82;74.12
70246;SHT30;57637;49.272;8.590;2024-02-23T07:37:03;5.83;74.34
70246;SHT30;57637;49.272;8.590;2024-02-23T07:39:29;5.83;74.46
70246;SHT30;57637;49.272;8.590;2024-02-23T07:41:54;5.80;74.43
70246;SHT30;57637;49.272;8.590;2024-02-23T07:44:19;5.82;74.52
70246;SHT30;57637;49.272;8.590;2024-02-23T07:46:45;5.80;74.65
70246;SHT30;57637;49.272;8.590;2024-02-23T07:49:10;5.87;74.65
70246;SHT30;57637;49.272;8.590;2024-02-23T07:51:35;5.90;74.77
70246;SHT30;57637;49.272;8.590;2024-02-23T07:54:04;6.05;74.65
70246;SHT30;57637;49.272;8.590;2024-02-23T07:56:30;6.24;74.27
70246;SHT30;57637;49.272;8.590;2024-02-23T07:58:56;6.42;73.91
70246;SHT30;57637;49.272;8.590;2024-02-23T08:01:21;6.64;73.47
70246;SHT30;57637;49.272;8.590;2024-02-23T08:03:47;6.85;72.86
70246;SHT30;57637;49.272;8.590;2024-02-23T08:06:12;7.08;72.38
70246;SHT30;57637;49.272;8.590;2024-02-23T08:08:38;7.26;71.74
70246;SHT30;57637;49.272;8.590;2024-02-23T08:11:03;7.47;70.92
70246;SHT30;57637;49.272;8.590;2024-02-23T08:13:29;7.75;70.10
70246;SHT30;57637;49.272;8.590;2024-02-23T08:15:54;7.98;69.30
70246;SHT30;57637;49.272;8.590;2024-02-23T08:18:19;7.99;69.19
70246;SHT30;57637;49.272;8.590;2024-02-23T08:20:47;8.08;69.33
70246;SHT30;57637;49.272;8.590;2024-02-23T08:23:12;8.18;69.19
70246;SHT30;57637;49.272;8.590;2024-02-23T08:25:38;8.24;68.96
70246;SHT30;57637;49.272;8.590;2024-02-23T08:28:03;8.35;68.85
70246;SHT30;57637;49.272;8.590;2024-02-23T08:30:29;8.39;68.72
70246;SHT30;57637;49.272;8.590;2024-02-23T08:32:54;8.55;68.94
70246;SHT30;57637;49.272;8.590;2024-02-23T08:35:19;8.79;67.91
70246;SHT30;57637;49.272;8.590;2024-02-23T08:37:44;8.97;68.35
70246;SHT30;57637;49.272;8.590;2024-02-23T08:40:10;9.08;68.10
70246;SHT30;57637;49.272;8.590;2024-02-23T08:42:36;9.21;67.59
70246;SHT30;57637;49.272;8.590;2024-02-23T08:45:02;9.27;66.95
70246;SHT30;57637;49.272;8.590;2024-02-23T08:47:27;9.27;67.21
70246;SHT30;57637;49.272;8.590;2024-02-23T08:49:57;9.41;66.59
70246;SHT30;57637;49.272;8.590;2024-02-23T08:52:22;9.47;66.11
70246;SHT30;57637;49.272;8.590;2024-02-23T08:54:47;9.48;64.81
70246;SHT30;57637;49.272;8.590;2024-02-23T08:57:13;9.54;65.80
70246;SHT30;57637;49.272;8.590;2024-02-23T08:59:42;9.72;65.20
70246;SHT30;57637;49.272;8.590;2024-02-23T09:02:07;9.82;64.47
70246;SHT30;57637;49.272;8.590;2024-02-23T09:04:34;9.91;64.24
70246;SHT30;57637;49.272;8.590;2024-02-23T09:07:00;9.86;63.90
70246;SHT30;57637;49.272;8.590;2024-02-23T09:09:25;9.91;63.75
70246;SHT30;57637;49.272;8.590;2024-02-23T09:11:51;9.89;62.93
70246;SHT30;57637;49.272;8.590;2024-02-23T09:14:16;9.83;63.31
70246;SHT30;57637;49.272;8.590;2024-02-23T09:16:41;10.12;62.98
70246;SHT30;57637;49.272;8.590;2024-02-23T09:19:06;10.53;62.46
70246;SHT30;57637;49.272;8.590;2024-02-23T09:21:32;10.13;61.74
70246;SHT30;57637;49.272;8.590;2024-02-23T09:23:58;10.05;62.70
70246;SHT30;57637;49.272;8.590;2024-02-23T09:26:24;9.95;63.78
70246;SHT30;57637;49.272;8.590;2024-02-23T09:28:49;10.40;63.49
70246;SHT30;57637;49.272;8.590;2024-02-23T09:31:15;10.40;62.13
70246;SHT30;57637;49.272;8.590;2024-02-23T09:33:40;10.53;61.75
70246;SHT30;57637;49.272;8.590;2024-02-23T09:36:05;10.74;60.98
70246;SHT30;57637;49.272;8.590;2024-02-23T09:38:31;10.70;61.53
70246;SHT30;57637;49.272;8.590;2024-02-23T09:40:57;10.59;61.83
70246;SHT30;57637;49.272;8.590;2024-02-23T09:43:23;10.28;61.99
70246;SHT30;57637;49.272;8.590;2024-02-23T09:45:54;10.37;62.12
70246;SHT30;57637;49.272;8.590;2024-02-23T09:48:22;10.56;61.30
70246;SHT30;57637;49.272;8.590;2024-02-23T09:50:48;11.03;60.70
70246;SHT30;57637;49.272;8.590;2024-02-23T09:53:14;11.11;60.35
70246;SHT30;57637;49.272;8.590;2024-02-23T09:55:42;10.74;60.07
70246;SHT30;57637;49.272;8.590;2024-02-23T09:58:09;10.90;59.99
70246;SHT30;57637;49.272;8.590;2024-02-23T10:00:37;10.70;60.58
70246;SHT30;57637;49.272;8.590;2024-02-23T10:03:03;10.84;60.14
70246;SHT30;57637;49.272;8.590;2024-02-23T10:05:30;11.14;60.28
70246;SHT30;57637;49.272;8.590;2024-02-23T10:07:58;11.35;60.40
70246;SHT30;57637;49.272;8.590;2024-02-23T10:10:26;11.55;59.38
70246;SHT30;57637;49.272;8.590;2024-02-23T10:12:55;11.52;58.56
70246;SHT30;57637;49.272;8.590;2024-02-23T10:15:20;11.48;58.36
70246;SHT30;57637;49.272;8.590;2024-02-23T10:17:47;11.66;58.71
70246;SHT30;57637;49.272;8.590;2024-02-23T10:20:12;11.62;57.75
70246;SHT30;57637;49.272;8.590;2024-02-23T10:22:37;11.59;57.74
70246;SHT30;57637;49.272;8.590;2024-02-23T10:25:03;11.65;57.66
70246;SHT30;57637;49.272;8.590;2024-02-23T10:27:29;11.62;57.83
70246;SHT30;57637;49.272;8.590;2024-02-23T10:29:55;11.62;58.42
70246;SHT30;57637;49.272;8.590;2024-02-23T10:32:20;11.54;58.76
70246;SHT30;57637;49.272;8.590;2024-02-23T10:34:49;11.75;58.11
70246;SHT30;57637;49.272;8.590;2024-02-23T10:37:15;11.49;58.18
70246;SHT30;57637;49.272;8.590;2024-02-23T10:39:41;11.25;58.57
70246;SHT30;57637;49.272;8.590;2024-02-23T10:42:08;11.46;59.63
70246;SHT30;57637;49.272;8.590;2024-02-23T10:44:35;11.42;58.83
70246;SHT30;57637;49.272;8.590;2024-02-23T10:47:01;11.48;59.03
70246;SHT30;57637;49.272;8.590;2024-02-23T10:49:28;11.54;58.42
70246;SHT30;57637;49.272;8.590;2024-02-23T10:51:54;11.73;58.43
70246;SHT30;57637;49.272;8.590;2024-02-23T10:54:20;12.00;58.53
70246;SHT30;57637;49.272;8.590;2024-02-23T10:56:47;12.07;58.53
70246;SHT30;57637;49.272;8.590;2024-02-23T10:59:14;11.85;56.93
70246;SHT30;57637;49.272;8.590;2024-02-23T11:01:43;11.77;57.30
70246;SHT30;57637;49.272;8.590;2024-02-23T11:04:11;11.73;57.57
70246;SHT30;57637;49.272;8.590;2024-02-23T11:06:37;11.69;57.61
70246;SHT30;57637;49.272;8.590;2024-02-23T11:09:06;11.70;57.96
70246;SHT30;57637;49.272;8.590;2024-02-23T11:11:38;11.94;58.09
70246;SHT30;57637;49.272;8.590;2024-02-23T11:14:07;12.06;58.08
70246;SHT30;57637;49.272;8.590;2024-02-23T11:16:33;12.24;57.81
70246;SHT30;57637;49.272;8.590;2024-02-23T11:19:05;12.14;56.85
70246;SHT30;57637;49.272;8.590;2024-02-23T11:21:33;12.31;55.98
70246;SHT30;57637;49.272;8.590;2024-02-23T11:24:02;12.48;56.19
70246;SHT30;57637;49.272;8.590;2024-02-23T11:26:31;12.65;56.04
70246;SHT30;57637;49.272;8.590;2024-02-23T11:28:58;12.69;55.68
70246;SHT30;57637;49.272;8.590;2024-02-23T11:31:25;12.60;55.58
70246;SHT30;57637;49.272;8.590;2024-02-23T11:33:55;12.37;56.22
70246;SHT30;57637;49.272;8.590;2024-02-23T11:38:52;12.30;55.86
70246;SHT30;57637;49.272;8.590;2024-02-23T11:41:20;12.28;56.55
70246;SHT30;57637;49.272;8.590;2024-02-23T11:43:47;12.30;56.77
70246;SHT30;57637;49.272;8.590;2024-02-23T11:46:12;12.13;57.14
70246;SHT30;57637;49.272;8.590;2024-02-23T11:48:40;12.24;56.90
70246;SHT30;57637;49.272;8.590;2024-02-23T11:51:05;12.13;56.79
70246;SHT30;57637;49.272;8.590;2024-02-23T11:53:32;12.26;56.33
70246;SHT30;57637;49.272;8.590;2024-02-23T11:55:58;12.06;56.25
70246;SHT30;57637;49.272;8.590;2024-02-23T11:58:23;12.09;56.77
70246;SHT30;57637;49.272;8.590;2024-02-23T12:00:50;11.99;57.15
70246;SHT30;57637;49.272;8.590;2024-02-23T12:03:16;11.90;57.29
70246;SHT30;57637;49.272;8.590;2024-02-23T12:05:42;11.94;57.89
70246;SHT30;57637;49.272;8.590;2024-02-23T12:08:08;11.80;57.66
70246;SHT30;57637;49.272;8.590;2024-02-23T12:10:33;11.80;58.17
70246;SHT30;57637;49.272;8.590;2024-02-23T12:12:59;11.55;58.05
70246;SHT30;57637;49.272;8.590;2024-02-23T12:15:24;11.39;58.69
70246;SHT30;57637;49.272;8.590;2024-02-23T12:17:50;11.15;59.20
70246;SHT30;57637;49.272;8.590;2024-02-23T12:20:15;11.03;59.30
70246;SHT30;57637;49.272;8.590;2024-02-23T12:22:41;10.97;60.07
70246;SHT30;57637;49.272;8.590;2024-02-23T12:25:07;10.90;60.29
70246;SHT30;57637;49.272;8.590;2024-02-23T12:27:32;10.90;60.54
70246;SHT30;57637;49.272;8.590;2024-02-23T12:29:57;10.98;60.35
70246;SHT30;57637;49.272;8.590;2024-02-23T12:32:24;11.07;60.19
70246;SHT30;57637;49.272;8.590;2024-02-23T12:34:50;11.15;59.94
70246;SHT30;57637;49.272;8.590;2024-02-23T12:37:16;11.35;60.09
70246;SHT30;57637;49.272;8.590;2024-02-23T12:39:42;11.43;60.00
70246;SHT30;57637;49.272;8.590;2024-02-23T12:42:08;11.59;59.57
70246;SHT30;57637;49.272;8.590;2024-02-23T12:44:33;11.73;59.57
70246;SHT30;57637;49.272;8.590;2024-02-23T12:46:58;11.76;59.68
70246;SHT30;57637;49.272;8.590;2024-02-23T12:49:24;11.96;58.99
70246;SHT30;57637;49.272;8.590;2024-02-23T12:51:49;12.19;59.51
70246;SHT30;57637;49.272;8.590;2024-02-23T12:54:14;12.09;58.72
70246;SHT30;57637;49.272;8.590;2024-02-23T12:56:40;12.13;58.58
70246;SHT30;57637;49.272;8.590;2024-02-23T12:59:05;12.20;58.37
70246;SHT30;57637;49.272;8.590;2024-02-23T13:01:30;12.52;58.06
70246;SHT30;57637;49.272;8.590;2024-02-23T13:03:59;12.51;57.65
70246;SHT30;57637;49.272;8.590;2024-02-23T13:06:24;12.68;57.31
70246;SHT30;57637;49.272;8.590;2024-02-23T13:08:50;12.77;56.84
70246;SHT30;57637;49.272;8.590;2024-02-23T13:11:15;12.98;56.04
70246;SHT30;57637;49.272;8.590;2024-02-23T13:13:41;13.01;56.60
70246;SHT30;57637;49.272;8.590;2024-02-23T13:16:06;12.95;56.58
70246;SHT30;57637;49.272;8.590;2024-02-23T13:18:33;12.98;56.90
70246;SHT30;57637;49.272;8.590;2024-02-23T13:20:58;13.02;57.79
70246;SHT30;57637;49.272;8.590;2024-02-23T13:23:24;13.09;57.31
70246;SHT30;57637;49.272;8.590;2024-02-23T13:25:49;13.18;58.25
70246;SHT30;57637;49.272;8.590;2024-02-23T13:28:15;13.18;55.17
70246;SHT30;57637;49.272;8.590;2024-02-23T13:30:40;12.99;54.54
70246;SHT30;57637;49.272;8.590;2024-02-23T13:33:06;12.85;55.84
70246;SHT30;57637;49.272;8.590;2024-02-23T13:35:32;12.77;55.16
70246;SHT30;57637;49.272;8.590;2024-02-23T13:37:58;12.74;55.89
70246;SHT30;57637;49.272;8.590;2024-02-23T13:40:24;12.72;56.12
70246;SHT30;57637;49.272;8.590;2024-02-23T13:42:50;12.84;55.58
70246;SHT30;57637;49.272;8.590;2024-02-23T13:45:17;12.52;55.90
70246;SHT30;57637;49.272;8.590;2024-02-23T13:47:44;12.64;56.43
70246;SHT30;57637;49.272;8.590;2024-02-23T13:50:21;12.64;55.81
70246;SHT30;57637;49.272;8.590;2024-02-23T13:52:47;12.55;56.05
70246;SHT30;57637;49.272;8.590;2024-02-23T13:55:12;12.58;55.78
70246;SHT30;57637;49.272;8.590;2024-02-23T13:57:39;12.54;55.76
70246;SHT30;57637;49.272;8.590;2024-02-23T14:00:04;12.36;55.73
70246;SHT30;57637;49.272;8.590;2024-02-23T14:02:33;12.20;55.57
70246;SHT30;57637;49.272;8.590;2024-02-23T14:05:01;12.06;56.05
70246;SHT30;57637;49.272;8.590;2024-02-23T14:07:28;11.99;56.40
70246;SHT30;57637;49.272;8.590;2024-02-23T14:09:53;11.96;56.80
70246;SHT30;57637;49.272;8.590;2024-02-23T14:12:18;11.83;57.13
70246;SHT30;57637;49.272;8.590;2024-02-23T14:14:44;11.83;56.83
70246;SHT30;57637;49.272;8.590;2024-02-23T14:17:09;11.66;57.67
70246;SHT30;57637;49.272;8.590;2024-02-23T14:19:34;11.83;57.94
70246;SHT30;57637;49.272;8.590;2024-02-23T14:22:00;11.85;57.03
70246;SHT30;57637;49.272;8.590;2024-02-23T14:24:25;11.87;56.81
70246;SHT30;57637;49.272;8.590;2024-02-23T14:26:51;11.94;56.85
70246;SHT30;57637;49.272;8.590;2024-02-23T14:29:16;12.00;56.90
70246;SHT30;57637;49.272;8.590;2024-02-23T14:31:42;11.97;55.92
70246;SHT30;57637;49.272;8.590;2024-02-23T14:34:08;12.01;56.21
70246;SHT30;57637;49.272;8.590;2024-02-23T14:36:34;12.04;56.72
70246;SHT30;57637;49.272;8.590;2024-02-23T14:38:59;12.03;56.12
70246;SHT30;57637;49.272;8.590;2024-02-23T14:41:25;12.04;56.37
70246;SHT30;57637;49.272;8.590;2024-02-23T14:43:50;11.93;56.51
70246;SHT30;57637;49.272;8.590;2024-02-23T14:46:15;11.75;57.22
70246;SHT30;57637;49.272;8.590;2024-02-23T14:48:41;11.73;57.52
70246;SHT30;57637;49.272;8.590;2024-02-23T14:51:06;11.56;57.85
70246;SHT30;57637;49.272;8.590;2024-02-23T14:53:33;11.58;57.89
70246;SHT30;57637;49.272;8.590;2024-02-23T14:55:58;11.46;57.36
70246;SHT30;57637;49.272;8.590;2024-02-23T14:58:24;11.35;57.87
70246;SHT30;57637;49.272;8.590;2024-02-23T15:00:49;11.40;58.00
70246;SHT30;57637;49.272;8.590;2024-02-23T15:03:14;11.51;58.43
70246;SHT30;57637;49.272;8.590;2024-02-23T15:05:40;11.73;57.50
70246;SHT30;57637;49.272;8.590;2024-02-23T15:08:06;11.85;56.47
70246;SHT30;57637;49.272;8.590;2024-02-23T15:10:32;12.07;56.43
70246;SHT30;57637;49.272;8.590;2024-02-23T15:12:58;12.17;56.35
70246;SHT30;57637;49.272;8.590;2024-02-23T15:15:23;12.09;55.94
70246;SHT30;57637;49.272;8.590;2024-02-23T15:17:48;12.09;55.86
70246;SHT30;57637;49.272;8.590;2024-02-23T15:20:14;11.97;55.90
70246;SHT30;57637;49.272;8.590;2024-02-23T15:22:39;11.87;56.13
70246;SHT30;57637;49.272;8.590;2024-02-23T15:25:07;11.73;55.81
70246;SHT30;57637;49.272;8.590;2024-02-23T15:27:34;11.52;56.24
70246;SHT30;57637;49.272;8.590;2024-02-23T15:29:59;11.42;56.32
70246;SHT30;57637;49.272;8.590;2024-02-23T15:32:25;11.38;57.08